createdAt,value
2023-01-17T00:01:54.325Z,6.00
2023-01-17T00:04:39.670Z,5.40
2023-01-17T00:07:29.726Z,5.57
2023-01-17T00:09:58.855Z,5.68
2023-01-17T00:12:29.852Z,5.70
2023-01-17T00:15:00.091Z,5.40
2023-01-17T00:17:30.156Z,5.50
2023-01-17T00:20:17.718Z,6.03
2023-01-17T00:23:06.242Z,5.55
2023-01-17T00:25:56.153Z,5.80
2023-01-17T00:28:24.062Z,6.00
2023-01-17T00:30:51.121Z,6.40
2023-01-17T00:33:18.597Z,6.72
2023-01-17T00:35:46.051Z,5.57
2023-01-17T00:38:16.745Z,6.03
2023-01-17T00:40:45.402Z,6.10
2023-01-17T00:43:32.934Z,6.13
2023-01-17T00:46:19.221Z,6.32
2023-01-17T00:49:05.275Z,6.03
2023-01-17T00:51:52.756Z,5.80
2023-01-17T00:54:39.967Z,5.78
2023-01-17T00:57:26.675Z,5.88
2023-01-17T01:00:12.461Z,5.47
2023-01-17T01:02:58.876Z,5.45
2023-01-17T01:05:44.554Z,5.82
2023-01-17T01:08:38.768Z,5.65
2023-01-17T01:14:12.575Z,5.35
2023-01-17T01:16:58.899Z,5.53
2023-01-17T01:19:45.188Z,5.13
2023-01-17T01:22:31.448Z,5.68
2023-01-17T01:25:16.938Z,5.10
2023-01-17T01:28:04.468Z,5.18
2023-01-17T01:30:50.525Z,5.10
2023-01-17T01:33:20.885Z,5.13
2023-01-17T01:35:50.787Z,5.28
2023-01-17T01:38:19.760Z,5.35
2023-01-17T01:40:50.030Z,6.00
2023-01-17T01:43:21.796Z,6.10
2023-01-17T01:45:54.050Z,6.07
2023-01-17T01:48:35.098Z,5.80
2023-01-17T01:51:06.156Z,5.85
2023-01-17T01:53:38.635Z,5.57
2023-01-17T01:56:10.849Z,5.55
2023-01-17T01:58:43.236Z,5.00
2023-01-17T02:01:11.896Z,5.88
2023-01-17T02:03:42.049Z,5.57
2023-01-17T02:06:22.061Z,5.63
2023-01-17T02:08:50.534Z,5.63
2023-01-17T02:11:18.988Z,5.55
2023-01-17T02:13:48.655Z,5.07
2023-01-17T02:16:28.779Z,4.78
2023-01-17T02:19:08.835Z,5.68
2023-01-17T02:21:42.877Z,5.80
2023-01-17T02:24:41.587Z,5.97
2023-01-17T02:27:17.357Z,5.75
2023-01-17T02:30:18.914Z,5.90
2023-01-17T02:33:01.398Z,5.78
2023-01-17T02:35:41.650Z,5.75
2023-01-17T02:38:18.040Z,6.07
2023-01-17T02:40:50.287Z,5.75
2023-01-17T02:43:21.654Z,5.78
2023-01-17T02:45:49.948Z,5.75
2023-01-17T02:48:25.887Z,5.78
2023-01-17T02:51:11.245Z,5.68
2023-01-17T02:53:52.722Z,5.60
2023-01-17T02:56:34.334Z,5.63
2023-01-17T02:59:22.345Z,5.70
2023-01-17T03:02:03.262Z,5.70
2023-01-17T03:04:40.345Z,5.80
2023-01-17T03:07:16.833Z,5.78
2023-01-17T03:09:46.978Z,5.97
2023-01-17T03:12:15.317Z,6.18
2023-01-17T03:14:43.513Z,6.18
2023-01-17T03:17:11.908Z,6.18
2023-01-17T03:19:41.708Z,6.82
2023-01-17T03:22:09.934Z,5.95
2023-01-17T03:24:38.819Z,7.13
2023-01-17T03:27:07.147Z,6.72
2023-01-17T03:29:35.360Z,5.97
2023-01-17T03:32:03.807Z,6.43
2023-01-17T03:34:32.015Z,6.18
2023-01-17T03:37:01.616Z,5.97
2023-01-17T03:39:30.274Z,6.15
2023-01-17T03:41:58.629Z,6.15
2023-01-17T03:44:26.799Z,7.47
2023-01-17T03:46:55.555Z,7.22
2023-01-17T03:49:23.985Z,7.18
2023-01-17T03:51:52.284Z,7.55
2023-01-17T03:54:22.441Z,8.02
2023-01-17T03:56:50.818Z,8.63
2023-01-17T03:59:19.018Z,8.73
2023-01-17T04:01:47.629Z,8.57
2023-01-17T04:04:16.057Z,8.50
2023-01-17T04:06:44.320Z,9.27
2023-01-17T04:09:12.990Z,9.10
2023-01-17T04:11:42.625Z,9.07
2023-01-17T04:14:10.845Z,9.25
2023-01-17T04:16:40.311Z,9.02
2023-01-17T04:19:10.572Z,8.77
2023-01-17T04:21:38.797Z,8.77
2023-01-17T04:24:08.097Z,8.65
2023-01-17T04:26:36.617Z,8.80
2023-01-17T04:29:06.543Z,8.60
2023-01-17T04:31:35.458Z,8.82
2023-01-17T04:34:03.661Z,8.38
2023-01-17T04:36:32.425Z,8.45
2023-01-17T04:39:00.884Z,8.20
2023-01-17T04:41:29.162Z,8.68
2023-01-17T04:43:57.355Z,8.77
2023-01-17T04:46:27.408Z,7.40
2023-01-17T04:48:55.698Z,8.40
2023-01-17T04:51:23.976Z,7.93
2023-01-17T04:53:52.595Z,7.95
2023-01-17T04:56:20.987Z,7.65
2023-01-17T04:58:49.184Z,8.07
2023-01-17T05:01:17.746Z,7.57
2023-01-17T05:03:47.420Z,7.40
2023-01-17T05:06:15.655Z,7.57
2023-01-17T05:08:43.944Z,7.53
2023-01-17T05:11:12.167Z,7.13
2023-01-17T05:13:40.391Z,7.25
2023-01-17T05:16:09.346Z,7.00
2023-01-17T05:18:37.795Z,7.47
2023-01-17T05:21:07.789Z,7.30
2023-01-17T05:23:36.276Z,6.93
2023-01-17T05:26:04.545Z,7.45
2023-01-17T05:28:32.852Z,6.82
2023-01-17T05:31:01.560Z,7.20
2023-01-17T05:33:30.132Z,6.90
2023-01-17T05:35:58.612Z,7.50
2023-01-17T05:38:28.543Z,7.22
2023-01-17T05:40:56.996Z,7.10
2023-01-17T05:43:25.279Z,6.75
2023-01-17T05:45:53.942Z,6.90
2023-01-17T05:48:22.327Z,7.43
2023-01-17T05:50:52.312Z,6.90
2023-01-17T05:53:20.983Z,7.22
2023-01-17T05:55:50.590Z,6.97
2023-01-17T05:58:21.825Z,7.07
2023-01-17T06:00:50.719Z,7.07
2023-01-17T06:03:19.174Z,7.45
2023-01-17T06:05:47.781Z,6.85
2023-01-17T06:08:16.299Z,6.90
2023-01-17T06:10:44.537Z,7.25
2023-01-17T06:13:20.866Z,7.57
2023-01-17T06:15:49.723Z,8.00
2023-01-17T06:18:18.939Z,7.85
2023-01-17T06:20:47.275Z,8.00
2023-01-17T06:23:16.276Z,7.65
2023-01-17T06:25:46.319Z,8.05
2023-01-17T06:28:17.812Z,7.15
2023-01-17T06:30:46.659Z,8.32
2023-01-17T06:33:15.290Z,8.32
2023-01-17T06:35:50.108Z,8.90
2023-01-17T06:38:18.717Z,7.88
2023-01-17T06:40:46.988Z,8.65
2023-01-17T06:43:16.761Z,7.97
2023-01-17T06:45:44.967Z,8.50
2023-01-17T06:48:13.225Z,8.13
2023-01-17T06:50:42.147Z,29.85
2023-01-17T06:53:11.222Z,23.88
2023-01-17T06:55:40.404Z,13.93
2023-01-17T06:58:10.868Z,11.65
2023-01-17T07:00:41.225Z,10.18
2023-01-17T07:03:18.390Z,9.98
2023-01-17T07:05:46.605Z,9.73
2023-01-17T07:08:16.951Z,9.68
2023-01-17T07:10:45.987Z,8.90
2023-01-17T07:13:14.837Z,9.20
2023-01-17T07:15:44.455Z,9.43
2023-01-17T07:18:12.988Z,10.10
2023-01-17T07:20:43.382Z,9.63
2023-01-17T07:23:11.550Z,10.52
2023-01-17T07:25:40.121Z,9.95
2023-01-17T07:28:08.416Z,9.57
2023-01-17T07:30:36.760Z,8.77
2023-01-17T07:33:06.962Z,8.90
2023-01-17T07:35:35.204Z,9.30
2023-01-17T07:38:04.180Z,8.85
2023-01-17T07:40:38.691Z,8.85
2023-01-17T07:43:14.140Z,9.05
2023-01-17T07:45:44.121Z,8.98
2023-01-17T07:48:14.062Z,10.18
2023-01-17T07:50:42.283Z,10.32
2023-01-17T07:53:11.006Z,9.82
2023-01-17T07:55:39.185Z,10.43
2023-01-17T07:58:07.416Z,12.07
2023-01-17T08:00:35.914Z,10.70
2023-01-17T08:03:04.185Z,10.63
2023-01-17T08:05:33.729Z,11.65
2023-01-17T08:08:02.029Z,10.00
2023-01-17T08:10:30.210Z,10.68
2023-01-17T08:12:58.455Z,10.25
2023-01-17T08:15:27.239Z,9.57
2023-01-17T08:17:57.595Z,8.68
2023-01-17T08:20:27.927Z,8.93
2023-01-17T08:22:58.215Z,15.07
2023-01-17T08:25:27.517Z,12.80
2023-01-17T08:27:58.801Z,13.18
2023-01-17T08:30:27.972Z,12.00
2023-01-17T08:32:56.280Z,11.27
2023-01-17T08:35:25.226Z,10.82
2023-01-17T08:37:56.163Z,10.40
2023-01-17T08:40:26.210Z,9.27
2023-01-17T08:42:58.671Z,9.13
2023-01-17T08:45:27.977Z,10.70
2023-01-17T08:47:56.224Z,9.65
2023-01-17T08:50:26.323Z,14.32
2023-01-17T08:53:01.282Z,9.85
2023-01-17T08:55:31.544Z,9.70
2023-01-17T08:57:59.957Z,9.90
2023-01-17T09:00:29.928Z,8.73
2023-01-17T09:02:58.456Z,8.57
2023-01-17T09:05:27.073Z,8.10
2023-01-17T09:07:56.588Z,8.32
2023-01-17T09:10:25.185Z,8.63
2023-01-17T09:12:54.773Z,8.75
2023-01-17T09:15:23.239Z,8.50
2023-01-17T09:17:51.837Z,9.30
2023-01-17T09:20:20.320Z,9.32
2023-01-17T09:22:48.776Z,9.20
2023-01-17T09:25:17.401Z,8.63
2023-01-17T09:27:47.304Z,9.18
2023-01-17T09:30:18.013Z,10.23
2023-01-17T09:32:52.863Z,9.65
2023-01-17T09:35:21.350Z,10.13
2023-01-17T09:37:50.796Z,10.52
2023-01-17T09:40:22.999Z,12.82
2023-01-17T09:42:53.034Z,15.70
2023-01-17T09:45:22.949Z,20.08
2023-01-17T09:47:53.839Z,21.60
2023-01-17T09:50:30.770Z,17.55
2023-01-17T09:53:04.025Z,13.90
2023-01-17T09:55:41.145Z,13.48
2023-01-17T09:58:14.322Z,13.60
2023-01-17T10:00:50.188Z,11.98
2023-01-17T10:03:51.854Z,17.63
2023-01-17T10:06:44.203Z,12.55
2023-01-17T10:09:26.695Z,11.73
2023-01-17T10:12:10.269Z,11.35
2023-01-17T10:14:52.633Z,12.95
2023-01-17T10:17:36.446Z,10.18
2023-01-17T10:20:41.644Z,9.43
2023-01-17T10:23:25.294Z,10.52
2023-01-17T10:25:55.936Z,9.68
2023-01-17T10:28:28.128Z,9.88
2023-01-17T10:31:04.056Z,8.73
2023-01-17T10:33:40.991Z,8.52
2023-01-17T10:36:15.605Z,7.15
2023-01-17T10:38:49.123Z,8.45
2023-01-17T10:41:23.404Z,8.60
2023-01-17T10:44:05.989Z,8.45
2023-01-17T10:46:40.866Z,6.35
2023-01-17T10:49:17.855Z,7.93
2023-01-17T10:52:14.360Z,8.20
2023-01-17T10:55:05.134Z,7.50
2023-01-17T10:57:40.887Z,7.20
2023-01-17T11:00:39.981Z,8.05
2023-01-17T11:03:11.336Z,6.85
2023-01-17T11:05:42.841Z,7.35
2023-01-17T11:08:14.094Z,7.53
2023-01-17T11:10:45.274Z,5.40
2023-01-17T11:13:27.879Z,4.22
2023-01-17T11:15:58.870Z,4.00
2023-01-17T11:18:29.666Z,2.85
2023-01-17T11:21:12.856Z,4.20
2023-01-17T11:23:44.932Z,4.60
2023-01-17T11:26:24.507Z,4.68
2023-01-17T11:28:53.326Z,5.05
2023-01-17T11:31:27.518Z,4.28
2023-01-17T11:34:15.878Z,4.53
2023-01-17T11:36:46.388Z,4.10
2023-01-17T11:39:27.750Z,4.30
2023-01-17T11:41:56.419Z,3.97
2023-01-17T11:44:26.909Z,3.60
2023-01-17T11:47:17.158Z,3.20
2023-01-17T11:49:47.059Z,2.90
2023-01-17T11:52:24.604Z,3.22
2023-01-17T11:54:55.239Z,2.40
2023-01-17T11:57:27.382Z,2.38
2023-01-17T12:00:04.744Z,2.80
2023-01-17T12:02:57.845Z,2.92
2023-01-17T12:05:39.666Z,2.60
2023-01-17T12:08:19.470Z,2.75
2023-01-17T12:10:55.414Z,2.80
2023-01-17T12:13:55.125Z,2.50
2023-01-17T12:16:33.713Z,2.55
2023-01-17T12:19:14.108Z,2.67
2023-01-17T12:21:51.689Z,3.10
2023-01-17T12:24:46.890Z,2.88
2023-01-17T12:27:23.966Z,2.70
2023-01-17T12:30:04.005Z,2.63
2023-01-17T12:33:08.100Z,2.58
2023-01-17T12:35:41.799Z,2.47
2023-01-17T12:38:23.662Z,2.33
2023-01-17T12:41:07.563Z,2.00
2023-01-17T12:43:38.665Z,2.97
2023-01-17T12:46:21.129Z,2.35
2023-01-17T12:48:53.833Z,2.25
2023-01-17T12:51:29.579Z,2.10
2023-01-17T12:54:03.182Z,1.77
2023-01-17T12:56:37.550Z,2.17
2023-01-17T12:59:15.382Z,2.00
2023-01-17T13:01:57.797Z,1.50
2023-01-17T13:04:32.921Z,2.10
2023-01-17T13:07:10.488Z,2.10
2023-01-17T13:09:44.102Z,2.03
2023-01-17T13:12:16.428Z,2.28
2023-01-17T13:14:47.224Z,2.63
2023-01-17T13:17:31.587Z,2.85
2023-01-17T13:20:04.609Z,2.63
2023-01-17T13:22:33.844Z,1.95
2023-01-17T13:25:16.434Z,2.00
2023-01-17T13:28:04.278Z,2.03
2023-01-17T13:30:43.497Z,1.95
2023-01-17T13:33:29.840Z,2.60
2023-01-17T13:36:11.298Z,2.03
2023-01-17T13:38:56.540Z,2.28
2023-01-17T13:41:38.245Z,2.08
2023-01-17T13:44:24.721Z,1.30
2023-01-17T13:47:01.899Z,2.13
2023-01-17T13:49:48.752Z,1.88
2023-01-17T13:52:33.609Z,1.90
2023-01-17T13:55:03.668Z,2.33
2023-01-17T13:57:40.121Z,2.20
2023-01-17T14:00:55.183Z,2.00
2023-01-17T14:03:56.993Z,1.83
2023-01-17T14:06:44.434Z,2.10
2023-01-17T14:09:17.098Z,2.35
2023-01-17T14:12:00.141Z,2.60
2023-01-17T14:14:53.170Z,2.13
2023-01-17T14:17:47.164Z,2.17
2023-01-17T14:20:43.726Z,1.65
2023-01-17T14:23:29.605Z,2.33
2023-01-17T14:26:01.407Z,2.08
2023-01-17T14:28:34.157Z,2.22
2023-01-17T14:31:09.331Z,1.73
2023-01-17T14:33:41.176Z,2.08
2023-01-17T14:36:20.561Z,2.28
2023-01-17T14:38:49.398Z,2.00
2023-01-17T14:41:22.725Z,1.90
2023-01-17T14:43:52.574Z,1.88
2023-01-17T14:46:26.428Z,2.25
2023-01-17T14:49:01.966Z,2.17
2023-01-17T14:51:35.061Z,2.22
2023-01-17T14:54:14.208Z,1.95
2023-01-17T14:56:42.476Z,2.17
2023-01-17T14:59:17.448Z,1.95
2023-01-17T15:02:06.231Z,2.38
2023-01-17T15:04:40.017Z,2.40
2023-01-17T15:07:13.933Z,2.10
2023-01-17T15:09:45.053Z,2.38
2023-01-17T15:12:14.997Z,2.63
2023-01-17T15:14:46.509Z,2.28
2023-01-17T15:17:20.468Z,2.65
2023-01-17T15:19:54.277Z,2.80
2023-01-17T15:22:23.680Z,2.60
2023-01-17T15:24:52.770Z,2.88
2023-01-17T15:27:21.698Z,2.88
2023-01-17T15:29:50.413Z,3.35
2023-01-17T15:32:23.135Z,3.08
2023-01-17T15:34:53.958Z,3.63
2023-01-17T15:37:30.083Z,3.25
2023-01-17T15:40:08.609Z,3.00
2023-01-17T15:42:40.415Z,3.55
2023-01-17T15:45:15.668Z,3.80
2023-01-17T15:47:44.096Z,3.80
2023-01-17T15:50:30.335Z,3.67
2023-01-17T15:53:01.079Z,3.95
2023-01-17T15:55:33.839Z,3.50
2023-01-17T15:58:02.720Z,3.73
2023-01-17T16:00:38.334Z,3.92
2023-01-17T16:03:25.086Z,4.40
2023-01-17T16:05:57.821Z,3.97
2023-01-17T16:08:29.320Z,3.90
2023-01-17T16:11:02.310Z,4.05
2023-01-17T16:13:32.627Z,3.83
2023-01-17T16:16:15.832Z,3.70
2023-01-17T16:18:46.565Z,3.40
2023-01-17T16:21:27.889Z,3.80
2023-01-17T16:23:56.519Z,4.13
2023-01-17T16:26:25.314Z,5.75
2023-01-17T16:28:53.979Z,5.05
2023-01-17T16:31:22.423Z,4.68
2023-01-17T16:33:51.450Z,7.10
2023-01-17T16:36:21.335Z,7.50
2023-01-17T16:38:53.165Z,8.50
2023-01-17T16:41:22.108Z,9.30
2023-01-17T16:44:01.407Z,7.93
2023-01-17T16:46:30.314Z,7.10
2023-01-17T16:49:00.658Z,5.57
2023-01-17T16:51:29.106Z,6.50
2023-01-17T16:53:59.546Z,6.18
2023-01-17T16:56:27.937Z,5.30
2023-01-17T16:58:56.917Z,5.10
2023-01-17T17:01:25.517Z,5.03
2023-01-17T17:03:53.823Z,5.68
2023-01-17T17:06:22.410Z,8.65
2023-01-17T17:08:50.618Z,11.63
2023-01-17T17:11:23.264Z,12.32
2023-01-17T17:13:52.685Z,14.02
2023-01-17T17:16:23.161Z,14.55
2023-01-17T17:18:57.108Z,13.95
2023-01-17T17:21:25.448Z,13.27
2023-01-17T17:23:56.902Z,13.82
2023-01-17T17:26:29.062Z,14.20
2023-01-17T17:28:57.963Z,13.55
2023-01-17T17:31:27.030Z,13.95
2023-01-17T17:33:59.926Z,12.95
2023-01-17T17:36:28.725Z,13.75
2023-01-17T17:38:57.602Z,14.05
2023-01-17T17:41:29.106Z,15.52
2023-01-17T17:43:57.700Z,17.95
2023-01-17T17:46:27.477Z,17.40
2023-01-17T17:48:56.361Z,18.45
2023-01-17T17:51:26.881Z,16.52
2023-01-17T17:53:56.763Z,15.23
2023-01-17T17:56:26.876Z,12.70
2023-01-17T17:58:55.786Z,12.55
2023-01-17T18:01:24.341Z,13.40
2023-01-17T18:03:53.111Z,12.43
2023-01-17T18:06:21.936Z,12.60
2023-01-17T18:08:52.118Z,12.35
2023-01-17T18:11:22.932Z,12.77
2023-01-17T18:13:54.975Z,14.45
2023-01-17T18:16:25.514Z,14.65
2023-01-17T18:18:55.556Z,14.95
2023-01-17T18:21:25.658Z,15.57
2023-01-17T18:23:55.643Z,14.15
2023-01-17T18:26:26.137Z,11.52
2023-01-17T18:28:57.195Z,11.13
2023-01-17T18:31:27.165Z,14.07
2023-01-17T18:33:56.482Z,15.32
2023-01-17T18:36:26.267Z,21.80
2023-01-17T18:38:54.488Z,20.90
2023-01-17T18:41:25.216Z,18.75
2023-01-17T18:43:53.952Z,18.77
2023-01-17T18:46:25.852Z,17.63
2023-01-17T18:48:56.932Z,16.25
2023-01-17T18:51:25.927Z,15.95
2023-01-17T18:53:54.201Z,16.02
2023-01-17T18:56:23.871Z,15.35
2023-01-17T18:58:52.622Z,16.50
2023-01-17T19:01:24.185Z,17.20
2023-01-17T19:03:54.711Z,16.83
2023-01-17T19:06:25.585Z,15.32
2023-01-17T19:08:54.065Z,15.30
2023-01-17T19:11:26.979Z,15.25
2023-01-17T19:13:55.344Z,15.35
2023-01-17T19:16:28.181Z,15.13
2023-01-17T19:18:58.092Z,13.13
2023-01-17T19:21:28.857Z,13.00
2023-01-17T19:23:59.583Z,12.20
2023-01-17T19:26:30.030Z,11.45
2023-01-17T19:29:00.269Z,12.10
2023-01-17T19:31:31.731Z,13.25
2023-01-17T19:34:02.228Z,13.88
2023-01-17T19:36:34.641Z,15.15
2023-01-17T19:39:05.848Z,15.73
2023-01-17T19:41:36.564Z,15.15
2023-01-17T19:44:06.888Z,15.20
2023-01-17T19:46:37.514Z,15.57
2023-01-17T19:49:07.587Z,15.25
2023-01-17T19:51:36.834Z,15.25
2023-01-17T19:54:06.604Z,14.98
2023-01-17T19:56:35.836Z,16.35
2023-01-17T19:59:04.221Z,19.55
2023-01-17T20:01:33.886Z,21.10
2023-01-17T20:04:04.599Z,19.35
2023-01-17T20:06:34.585Z,20.00
2023-01-17T20:09:03.050Z,21.35
2023-01-17T20:11:31.430Z,19.30
2023-01-17T20:14:00.612Z,19.13
2023-01-17T20:16:31.626Z,17.85
2023-01-17T20:19:02.920Z,17.38
2023-01-17T20:21:34.519Z,17.33
2023-01-17T20:24:04.571Z,16.73
2023-01-17T20:26:37.746Z,15.90
2023-01-17T20:29:10.755Z,16.02
2023-01-17T20:31:40.498Z,14.18
2023-01-17T20:34:10.808Z,13.68
2023-01-17T20:36:42.362Z,13.50
2023-01-17T20:39:13.519Z,13.80
2023-01-17T20:41:43.418Z,14.98
2023-01-17T20:44:15.183Z,15.95
2023-01-17T20:46:44.440Z,20.13
2023-01-17T20:49:16.097Z,24.38
2023-01-17T20:51:47.031Z,23.67
2023-01-17T20:54:16.913Z,29.27
2023-01-17T20:56:47.574Z,29.17
2023-01-17T20:59:17.642Z,26.23
2023-01-17T21:01:46.736Z,18.10
2023-01-17T21:04:15.722Z,18.00
2023-01-17T21:06:46.133Z,15.73
2023-01-17T21:09:17.397Z,14.45
2023-01-17T21:11:45.905Z,15.73
2023-01-17T21:14:14.187Z,16.42
2023-01-17T21:16:42.586Z,14.90
2023-01-17T21:19:12.100Z,14.85
2023-01-17T21:21:40.563Z,15.52
2023-01-17T21:24:11.615Z,16.17
2023-01-17T21:26:44.498Z,14.88
2023-01-17T21:29:13.544Z,16.92
2023-01-17T21:31:42.747Z,15.52
2023-01-17T21:34:13.790Z,14.73
2023-01-17T21:36:43.997Z,13.77
2023-01-17T21:39:15.838Z,12.73
2023-01-17T21:41:48.199Z,14.73
2023-01-17T21:44:19.419Z,14.55
2023-01-17T21:46:52.862Z,15.57
2023-01-17T21:49:22.912Z,14.40
2023-01-17T21:52:09.068Z,15.45
2023-01-17T21:54:56.467Z,16.20
2023-01-17T21:57:42.643Z,16.65
2023-01-17T22:00:14.601Z,16.83
2023-01-17T22:02:43.258Z,15.02
2023-01-17T22:05:11.927Z,14.35
2023-01-17T22:07:40.736Z,14.30
2023-01-17T22:10:12.099Z,14.02
2023-01-17T22:12:40.709Z,15.13
2023-01-17T22:15:10.228Z,14.85
2023-01-17T22:17:39.901Z,15.20
2023-01-17T22:20:11.850Z,15.38
2023-01-17T22:22:40.149Z,16.02
2023-01-17T22:25:10.276Z,15.50
2023-01-17T22:27:38.708Z,15.52
2023-01-17T22:30:12.904Z,16.20
2023-01-17T22:32:41.359Z,15.45
2023-01-17T22:35:10.628Z,15.80
2023-01-17T22:37:38.820Z,16.25
2023-01-17T22:40:10.367Z,15.90
2023-01-17T22:42:40.467Z,16.42
2023-01-17T22:45:10.373Z,15.23
2023-01-17T22:47:39.615Z,15.18
2023-01-17T22:50:09.024Z,14.68
2023-01-17T22:52:37.337Z,14.52
2023-01-17T22:55:06.420Z,15.05
2023-01-17T22:57:34.666Z,14.25
2023-01-17T23:00:14.749Z,15.07
2023-01-17T23:02:43.781Z,14.68
2023-01-17T23:05:12.645Z,16.55
2023-01-17T23:07:44.390Z,18.20
2023-01-17T23:10:13.749Z,16.63
2023-01-17T23:12:40.980Z,17.00
2023-01-17T23:15:27.976Z,16.38
2023-01-17T23:18:13.961Z,16.33
2023-01-17T23:20:42.529Z,16.50
2023-01-17T23:23:10.745Z,16.05
2023-01-17T23:25:39.001Z,16.17
2023-01-17T23:28:11.905Z,17.58
2023-01-17T23:30:43.038Z,15.77
2023-01-17T23:33:13.906Z,15.80
2023-01-17T23:35:44.335Z,15.55
2023-01-17T23:38:30.073Z,16.27
2023-01-17T23:41:19.678Z,14.38
2023-01-17T23:43:52.667Z,14.85
2023-01-17T23:46:24.008Z,14.32
2023-01-17T23:48:52.297Z,15.90
2023-01-17T23:51:20.781Z,14.20
2023-01-17T23:53:50.977Z,14.90
2023-01-17T23:56:22.107Z,14.18
2023-01-17T23:58:50.736Z,14.20
